Terminal Aerodrome Forecast
Issued by NWS Jackson, KY

Home | Current Version | Previous Version | Text Only | Print | Product List | Glossary On
Versions: 1 2 3 4 5 6 7 8 9 10 11 12 13 14 15 16 17
569
FTUS43 KJKL 231744
TAFLOZ
TAF
KLOZ 231744Z 2318/2418 16004KT P6SM VCSH BKN070
     FM232300 VRB03KT P6SM BKN060
     FM240700 00000KT P6SM VCTS SCT030CB BKN060
     FM241000 00000KT P6SM VCTS OVC030CB
     FM241300 15004KT 3SM SHRA VCTS OVC015CB
     FM241700 16010KT 4SM SHRA VCTS OVC020CB=

USA.gov is the U.S. government's official web portal to all federal, state and local government web resources and services.